sensor_id;sensor_type;location;lat;lon;timestamp;temperature;humidity
2190;DHT22;1101;51.056;7.262;2022-12-29T00:01:45;8.60;99.90
2190;DHT22;1101;51.056;7.262;2022-12-29T00:04:14;8.60;99.90
2190;DHT22;1101;51.056;7.262;2022-12-29T00:06:42;8.60;99.90
2190;DHT22;1101;51.056;7.262;2022-12-29T00:09:11;8.60;99.90
2190;DHT22;1101;51.056;7.262;2022-12-29T00:11:40;8.70;99.90
2190;DHT22;1101;51.056;7.262;2022-12-29T00:14:09;8.70;99.90
2190;DHT22;1101;51.056;7.262;2022-12-29T00:16:55;8.70;99.90
2190;DHT22;1101;51.056;7.262;2022-12-29T00:19:23;8.70;99.90
2190;DHT22;1101;51.056;7.262;2022-12-29T00:22:09;8.70;99.90
2190;DHT22;1101;51.056;7.262;2022-12-29T00:24:55;8.70;99.90
2190;DHT22;1101;51.056;7.262;2022-12-29T00:27:42;8.70;99.90
2190;DHT22;1101;51.056;7.262;2022-12-29T00:30:33;8.70;99.90
2190;DHT22;1101;51.056;7.262;2022-12-29T00:33:28;8.70;99.90
2190;DHT22;1101;51.056;7.262;2022-12-29T00:36:17;8.70;99.90
2190;DHT22;1101;51.056;7.262;2022-12-29T00:38:48;8.80;99.90
2190;DHT22;1101;51.056;7.262;2022-12-29T00:41:34;8.80;99.90
2190;DHT22;1101;51.056;7.262;2022-12-29T00:44:21;8.80;99.90
2190;DHT22;1101;51.056;7.262;2022-12-29T00:46:49;8.80;99.90
2190;DHT22;1101;51.056;7.262;2022-12-29T00:49:16;8.90;99.90
2190;DHT22;1101;51.056;7.262;2022-12-29T00:52:00;8.90;99.90
2190;DHT22;1101;51.056;7.262;2022-12-29T00:54:30;8.90;99.90
2190;DHT22;1101;51.056;7.262;2022-12-29T00:56:58;8.90;99.90
2190;DHT22;1101;51.056;7.262;2022-12-29T00:59:27;8.90;99.90
2190;DHT22;1101;51.056;7.262;2022-12-29T01:01:55;8.90;99.90
2190;DHT22;1101;51.056;7.262;2022-12-29T01:04:25;9.00;99.90
2190;DHT22;1101;51.056;7.262;2022-12-29T01:06:53;9.00;99.90
2190;DHT22;1101;51.056;7.262;2022-12-29T01:09:21;9.00;99.90
2190;DHT22;1101;51.056;7.262;2022-12-29T01:12:07;9.00;99.90
2190;DHT22;1101;51.056;7.262;2022-12-29T01:14:38;9.10;99.90
2190;DHT22;1101;51.056;7.262;2022-12-29T01:17:06;9.10;99.90
2190;DHT22;1101;51.056;7.262;2022-12-29T01:19:34;9.10;99.90
2190;DHT22;1101;51.056;7.262;2022-12-29T01:22:02;9.00;99.90
2190;DHT22;1101;51.056;7.262;2022-12-29T01:24:30;9.10;99.90
2190;DHT22;1101;51.056;7.262;2022-12-29T01:26:58;9.10;99.90
2190;DHT22;1101;51.056;7.262;2022-12-29T01:29:25;9.10;99.90
2190;DHT22;1101;51.056;7.262;2022-12-29T01:31:55;9.10;99.90
2190;DHT22;1101;51.056;7.262;2022-12-29T01:34:22;9.10;99.90
2190;DHT22;1101;51.056;7.262;2022-12-29T01:36:50;9.10;99.90
2190;DHT22;1101;51.056;7.262;2022-12-29T01:39:18;9.10;99.90
2190;DHT22;1101;51.056;7.262;2022-12-29T01:41:46;9.10;99.90
2190;DHT22;1101;51.056;7.262;2022-12-29T01:47:28;9.20;99.90
2190;DHT22;1101;51.056;7.262;2022-12-29T01:50:00;9.20;99.90
2190;DHT22;1101;51.056;7.262;2022-12-29T01:52:30;9.20;99.90
2190;DHT22;1101;51.056;7.262;2022-12-29T01:55:00;9.20;99.90
2190;DHT22;1101;51.056;7.262;2022-12-29T01:57:32;9.20;99.90
2190;DHT22;1101;51.056;7.262;2022-12-29T02:00:05;9.20;99.90
2190;DHT22;1101;51.056;7.262;2022-12-29T02:02:36;9.20;99.90
2190;DHT22;1101;51.056;7.262;2022-12-29T02:05:10;9.20;99.90
2190;DHT22;1101;51.056;7.262;2022-12-29T02:07:39;9.20;99.90
2190;DHT22;1101;51.056;7.262;2022-12-29T02:10:08;9.30;99.90
2190;DHT22;1101;51.056;7.262;2022-12-29T02:12:36;9.30;99.90
2190;DHT22;1101;51.056;7.262;2022-12-29T02:15:04;9.30;99.90
2190;DHT22;1101;51.056;7.262;2022-12-29T02:17:57;9.30;99.90
2190;DHT22;1101;51.056;7.262;2022-12-29T02:24:05;9.30;99.90
2190;DHT22;1101;51.056;7.262;2022-12-29T02:27:11;9.30;99.90
2190;DHT22;1101;51.056;7.262;2022-12-29T02:30:06;9.30;99.90
2190;DHT22;1101;51.056;7.262;2022-12-29T02:32:42;9.40;99.90
2190;DHT22;1101;51.056;7.262;2022-12-29T02:35:18;9.40;99.90
2190;DHT22;1101;51.056;7.262;2022-12-29T02:37:58;9.40;99.90
2190;DHT22;1101;51.056;7.262;2022-12-29T02:40:35;9.40;99.90
2190;DHT22;1101;51.056;7.262;2022-12-29T02:43:12;9.40;99.90
2190;DHT22;1101;51.056;7.262;2022-12-29T02:45:49;9.40;99.90
2190;DHT22;1101;51.056;7.262;2022-12-29T02:48:25;9.50;99.90
2190;DHT22;1101;51.056;7.262;2022-12-29T02:50:58;9.50;99.90
2190;DHT22;1101;51.056;7.262;2022-12-29T02:53:29;9.50;99.90
2190;DHT22;1101;51.056;7.262;2022-12-29T02:56:17;9.50;99.90
2190;DHT22;1101;51.056;7.262;2022-12-29T02:58:44;9.50;99.90
2190;DHT22;1101;51.056;7.262;2022-12-29T03:01:23;9.50;99.90
2190;DHT22;1101;51.056;7.262;2022-12-29T03:04:14;9.50;99.90
2190;DHT22;1101;51.056;7.262;2022-12-29T03:06:52;9.50;99.90
2190;DHT22;1101;51.056;7.262;2022-12-29T03:09:31;9.50;99.90
2190;DHT22;1101;51.056;7.262;2022-12-29T03:12:10;9.50;99.90
2190;DHT22;1101;51.056;7.262;2022-12-29T03:14:55;9.50;99.90
2190;DHT22;1101;51.056;7.262;2022-12-29T03:17:48;9.50;99.90
2190;DHT22;1101;51.056;7.262;2022-12-29T03:20:23;9.50;99.90
2190;DHT22;1101;51.056;7.262;2022-12-29T03:22:58;9.50;99.90
2190;DHT22;1101;51.056;7.262;2022-12-29T03:25:30;9.50;99.90
2190;DHT22;1101;51.056;7.262;2022-12-29T03:28:02;9.50;99.90
2190;DHT22;1101;51.056;7.262;2022-12-29T03:30:32;9.50;99.90
2190;DHT22;1101;51.056;7.262;2022-12-29T03:33:04;9.60;99.90
2190;DHT22;1101;51.056;7.262;2022-12-29T03:35:36;9.60;99.90
2190;DHT22;1101;51.056;7.262;2022-12-29T03:38:08;9.60;99.90
2190;DHT22;1101;51.056;7.262;2022-12-29T03:40:39;9.60;99.90
2190;DHT22;1101;51.056;7.262;2022-12-29T03:43:09;9.60;99.90
2190;DHT22;1101;51.056;7.262;2022-12-29T03:45:37;9.50;99.90
2190;DHT22;1101;51.056;7.262;2022-12-29T03:48:05;9.50;99.90
2190;DHT22;1101;51.056;7.262;2022-12-29T03:50:36;9.50;99.90
2190;DHT22;1101;51.056;7.262;2022-12-29T03:53:03;9.50;99.90
2190;DHT22;1101;51.056;7.262;2022-12-29T03:55:31;9.50;99.90
2190;DHT22;1101;51.056;7.262;2022-12-29T03:57:59;9.50;99.90
2190;DHT22;1101;51.056;7.262;2022-12-29T04:00:27;9.50;99.90
2190;DHT22;1101;51.056;7.262;2022-12-29T04:02:55;9.50;99.90
2190;DHT22;1101;51.056;7.262;2022-12-29T04:05:23;9.50;99.90
2190;DHT22;1101;51.056;7.262;2022-12-29T04:07:53;9.60;99.90
2190;DHT22;1101;51.056;7.262;2022-12-29T04:10:20;9.60;99.90
2190;DHT22;1101;51.056;7.262;2022-12-29T04:12:48;9.60;99.90
2190;DHT22;1101;51.056;7.262;2022-12-29T04:15:16;9.60;99.90
2190;DHT22;1101;51.056;7.262;2022-12-29T04:17:44;9.60;99.90
2190;DHT22;1101;51.056;7.262;2022-12-29T04:20:12;9.60;99.90
2190;DHT22;1101;51.056;7.262;2022-12-29T04:23:00;9.60;99.90
2190;DHT22;1101;51.056;7.262;2022-12-29T04:25:28;9.60;99.90
2190;DHT22;1101;51.056;7.262;2022-12-29T04:27:56;9.60;99.90
2190;DHT22;1101;51.056;7.262;2022-12-29T04:30:23;9.60;99.90
2190;DHT22;1101;51.056;7.262;2022-12-29T04:32:51;9.70;99.90
2190;DHT22;1101;51.056;7.262;2022-12-29T04:35:19;9.60;99.90
2190;DHT22;1101;51.056;7.262;2022-12-29T04:37:47;9.70;99.90
2190;DHT22;1101;51.056;7.262;2022-12-29T04:40:16;9.70;99.90
2190;DHT22;1101;51.056;7.262;2022-12-29T04:42:44;9.70;99.90
2190;DHT22;1101;51.056;7.262;2022-12-29T04:45:11;9.70;99.90
2190;DHT22;1101;51.056;7.262;2022-12-29T04:47:39;9.70;99.90
2190;DHT22;1101;51.056;7.262;2022-12-29T04:50:07;9.70;99.90
2190;DHT22;1101;51.056;7.262;2022-12-29T04:52:35;9.70;99.90
2190;DHT22;1101;51.056;7.262;2022-12-29T04:55:04;9.80;99.90
2190;DHT22;1101;51.056;7.262;2022-12-29T04:57:34;9.80;99.90
2190;DHT22;1101;51.056;7.262;2022-12-29T05:00:03;9.80;99.90
2190;DHT22;1101;51.056;7.262;2022-12-29T05:02:31;9.80;99.90
2190;DHT22;1101;51.056;7.262;2022-12-29T05:04:59;9.80;99.90
2190;DHT22;1101;51.056;7.262;2022-12-29T05:07:27;9.80;99.90
2190;DHT22;1101;51.056;7.262;2022-12-29T05:09:55;9.80;99.90
2190;DHT22;1101;51.056;7.262;2022-12-29T05:12:22;9.80;99.90
2190;DHT22;1101;51.056;7.262;2022-12-29T05:14:51;9.80;99.90
2190;DHT22;1101;51.056;7.262;2022-12-29T05:17:19;9.80;99.90
2190;DHT22;1101;51.056;7.262;2022-12-29T05:19:47;9.80;99.90
2190;DHT22;1101;51.056;7.262;2022-12-29T05:22:15;9.80;99.90
2190;DHT22;1101;51.056;7.262;2022-12-29T05:24:44;9.90;99.90
2190;DHT22;1101;51.056;7.262;2022-12-29T05:27:11;9.90;99.90
2190;DHT22;1101;51.056;7.262;2022-12-29T05:29:40;9.90;99.90
2190;DHT22;1101;51.056;7.262;2022-12-29T05:32:09;9.90;99.90
2190;DHT22;1101;51.056;7.262;2022-12-29T05:34:36;9.90;99.90
2190;DHT22;1101;51.056;7.262;2022-12-29T05:37:04;10.00;99.90
2190;DHT22;1101;51.056;7.262;2022-12-29T05:39:32;10.00;99.90
2190;DHT22;1101;51.056;7.262;2022-12-29T05:42:00;10.00;99.90
2190;DHT22;1101;51.056;7.262;2022-12-29T05:44:28;10.00;99.90
2190;DHT22;1101;51.056;7.262;2022-12-29T05:46:55;10.00;99.90
2190;DHT22;1101;51.056;7.262;2022-12-29T05:49:25;10.00;99.90
2190;DHT22;1101;51.056;7.262;2022-12-29T05:51:52;10.00;99.90
2190;DHT22;1101;51.056;7.262;2022-12-29T05:54:20;10.00;99.90
2190;DHT22;1101;51.056;7.262;2022-12-29T05:56:48;10.00;99.90
2190;DHT22;1101;51.056;7.262;2022-12-29T05:59:15;10.00;99.90
2190;DHT22;1101;51.056;7.262;2022-12-29T06:01:43;10.00;99.90
2190;DHT22;1101;51.056;7.262;2022-12-29T06:04:11;10.00;99.90
2190;DHT22;1101;51.056;7.262;2022-12-29T06:06:41;10.00;99.90
2190;DHT22;1101;51.056;7.262;2022-12-29T06:09:09;10.00;99.90
2190;DHT22;1101;51.056;7.262;2022-12-29T06:11:37;10.00;99.90
2190;DHT22;1101;51.056;7.262;2022-12-29T06:14:05;10.00;99.90
2190;DHT22;1101;51.056;7.262;2022-12-29T06:16:33;10.00;99.90
2190;DHT22;1101;51.056;7.262;2022-12-29T06:19:01;10.00;99.90
2190;DHT22;1101;51.056;7.262;2022-12-29T06:21:29;10.00;99.90
2190;DHT22;1101;51.056;7.262;2022-12-29T06:23:58;10.00;99.90
2190;DHT22;1101;51.056;7.262;2022-12-29T06:26:25;10.00;99.90
2190;DHT22;1101;51.056;7.262;2022-12-29T06:28:53;9.90;99.90
2190;DHT22;1101;51.056;7.262;2022-12-29T06:31:21;10.00;99.90
2190;DHT22;1101;51.056;7.262;2022-12-29T06:33:49;10.00;99.90
2190;DHT22;1101;51.056;7.262;2022-12-29T06:36:17;9.90;99.90
2190;DHT22;1101;51.056;7.262;2022-12-29T06:38:45;9.90;99.90
2190;DHT22;1101;51.056;7.262;2022-12-29T06:41:14;9.90;99.90
2190;DHT22;1101;51.056;7.262;2022-12-29T06:43:42;9.90;99.90
2190;DHT22;1101;51.056;7.262;2022-12-29T06:46:10;9.80;99.90
2190;DHT22;1101;51.056;7.262;2022-12-29T06:48:38;9.80;99.90
2190;DHT22;1101;51.056;7.262;2022-12-29T06:51:08;9.80;99.90
2190;DHT22;1101;51.056;7.262;2022-12-29T06:53:36;9.80;99.90
2190;DHT22;1101;51.056;7.262;2022-12-29T06:56:04;9.80;99.90
2190;DHT22;1101;51.056;7.262;2022-12-29T06:58:33;9.80;99.90
2190;DHT22;1101;51.056;7.262;2022-12-29T07:01:01;9.80;99.90
2190;DHT22;1101;51.056;7.262;2022-12-29T07:03:29;9.80;99.90
2190;DHT22;1101;51.056;7.262;2022-12-29T07:05:57;9.80;99.90
2190;DHT22;1101;51.056;7.262;2022-12-29T07:08:25;9.70;99.90
2190;DHT22;1101;51.056;7.262;2022-12-29T07:10:52;9.80;99.90
2190;DHT22;1101;51.056;7.262;2022-12-29T07:13:20;9.70;99.90
2190;DHT22;1101;51.056;7.262;2022-12-29T07:15:49;9.80;99.90
2190;DHT22;1101;51.056;7.262;2022-12-29T07:18:17;9.80;99.90
2190;DHT22;1101;51.056;7.262;2022-12-29T07:20:45;9.80;99.90
2190;DHT22;1101;51.056;7.262;2022-12-29T07:23:12;9.80;99.90
2190;DHT22;1101;51.056;7.262;2022-12-29T07:25:40;9.70;99.90
2190;DHT22;1101;51.056;7.262;2022-12-29T07:28:08;9.70;99.90
2190;DHT22;1101;51.056;7.262;2022-12-29T07:30:36;9.70;99.90
2190;DHT22;1101;51.056;7.262;2022-12-29T07:33:06;9.70;99.90
2190;DHT22;1101;51.056;7.262;2022-12-29T07:35:34;9.70;99.90
2190;DHT22;1101;51.056;7.262;2022-12-29T07:38:02;9.80;99.90
2190;DHT22;1101;51.056;7.262;2022-12-29T07:40:29;9.70;99.90
2190;DHT22;1101;51.056;7.262;2022-12-29T07:42:57;9.80;99.90
2190;DHT22;1101;51.056;7.262;2022-12-29T07:45:25;9.80;99.90
2190;DHT22;1101;51.056;7.262;2022-12-29T07:50:32;9.80;99.90
2190;DHT22;1101;51.056;7.262;2022-12-29T07:53:00;9.80;99.90
2190;DHT22;1101;51.056;7.262;2022-12-29T07:55:28;9.80;99.90
2190;DHT22;1101;51.056;7.262;2022-12-29T07:57:56;9.80;99.90
2190;DHT22;1101;51.056;7.262;2022-12-29T08:00:24;9.70;99.90
2190;DHT22;1101;51.056;7.262;2022-12-29T08:02:52;9.70;99.90
2190;DHT22;1101;51.056;7.262;2022-12-29T08:05:20;9.70;99.90
2190;DHT22;1101;51.056;7.262;2022-12-29T08:07:49;9.80;99.90
2190;DHT22;1101;51.056;7.262;2022-12-29T08:10:18;9.80;99.90
2190;DHT22;1101;51.056;7.262;2022-12-29T08:12:46;9.80;99.90
2190;DHT22;1101;51.056;7.262;2022-12-29T08:15:14;9.80;99.90
2190;DHT22;1101;51.056;7.262;2022-12-29T08:17:41;9.80;99.90
2190;DHT22;1101;51.056;7.262;2022-12-29T08:20:10;9.70;99.90
2190;DHT22;1101;51.056;7.262;2022-12-29T08:22:37;9.70;99.90
2190;DHT22;1101;51.056;7.262;2022-12-29T08:25:08;9.70;99.90
2190;DHT22;1101;51.056;7.262;2022-12-29T08:27:35;9.70;99.90
2190;DHT22;1101;51.056;7.262;2022-12-29T08:30:04;9.70;99.90
2190;DHT22;1101;51.056;7.262;2022-12-29T08:32:32;9.70;99.90
2190;DHT22;1101;51.056;7.262;2022-12-29T08:35:00;9.70;99.90
2190;DHT22;1101;51.056;7.262;2022-12-29T08:37:27;9.70;99.90
2190;DHT22;1101;51.056;7.262;2022-12-29T08:39:57;9.70;99.90
2190;DHT22;1101;51.056;7.262;2022-12-29T08:42:27;9.70;99.90
2190;DHT22;1101;51.056;7.262;2022-12-29T08:44:57;9.70;99.90
2190;DHT22;1101;51.056;7.262;2022-12-29T08:47:25;9.70;99.90
2190;DHT22;1101;51.056;7.262;2022-12-29T08:49:53;9.70;99.90
2190;DHT22;1101;51.056;7.262;2022-12-29T08:52:21;9.70;99.90
2190;DHT22;1101;51.056;7.262;2022-12-29T08:54:49;9.70;99.90
2190;DHT22;1101;51.056;7.262;2022-12-29T08:57:17;9.70;99.90
2190;DHT22;1101;51.056;7.262;2022-12-29T08:59:46;9.70;99.90
2190;DHT22;1101;51.056;7.262;2022-12-29T09:02:14;9.70;99.90
2190;DHT22;1101;51.056;7.262;2022-12-29T09:04:49;9.70;99.90
2190;DHT22;1101;51.056;7.262;2022-12-29T09:07:17;9.70;99.90
2190;DHT22;1101;51.056;7.262;2022-12-29T09:09:45;9.60;99.90
2190;DHT22;1101;51.056;7.262;2022-12-29T09:12:13;9.60;99.90
2190;DHT22;1101;51.056;7.262;2022-12-29T09:14:40;9.60;99.90
2190;DHT22;1101;51.056;7.262;2022-12-29T09:17:10;9.70;99.90
2190;DHT22;1101;51.056;7.262;2022-12-29T09:19:56;9.70;99.90
2190;DHT22;1101;51.056;7.262;2022-12-29T09:22:23;9.70;99.90
2190;DHT22;1101;51.056;7.262;2022-12-29T09:24:51;9.60;99.90
2190;DHT22;1101;51.056;7.262;2022-12-29T09:27:19;9.70;99.90
2190;DHT22;1101;51.056;7.262;2022-12-29T09:29:47;9.70;99.90
2190;DHT22;1101;51.056;7.262;2022-12-29T09:32:16;9.60;99.90
2190;DHT22;1101;51.056;7.262;2022-12-29T09:34:45;9.70;99.90
2190;DHT22;1101;51.056;7.262;2022-12-29T09:37:13;9.60;99.90
2190;DHT22;1101;51.056;7.262;2022-12-29T09:39:40;9.70;99.90
2190;DHT22;1101;51.056;7.262;2022-12-29T09:42:12;9.70;99.90
2190;DHT22;1101;51.056;7.262;2022-12-29T09:44:51;9.80;99.90
2190;DHT22;1101;51.056;7.262;2022-12-29T09:47:25;9.80;99.90
2190;DHT22;1101;51.056;7.262;2022-12-29T09:49:56;9.80;99.90
2190;DHT22;1101;51.056;7.262;2022-12-29T09:52:28;9.90;99.90
2190;DHT22;1101;51.056;7.262;2022-12-29T09:54:59;9.90;99.90
2190;DHT22;1101;51.056;7.262;2022-12-29T09:57:38;9.90;99.90
2190;DHT22;1101;51.056;7.262;2022-12-29T10:00:13;10.00;99.90
2190;DHT22;1101;51.056;7.262;2022-12-29T10:02:44;10.00;99.90
2190;DHT22;1101;51.056;7.262;2022-12-29T10:05:27;10.00;99.90
2190;DHT22;1101;51.056;7.262;2022-12-29T10:08:05;10.00;99.90
2190;DHT22;1101;51.056;7.262;2022-12-29T10:10:48;10.00;99.90
2190;DHT22;1101;51.056;7.262;2022-12-29T10:13:28;10.00;99.90
2190;DHT22;1101;51.056;7.262;2022-12-29T10:16:04;10.10;99.90
2190;DHT22;1101;51.056;7.262;2022-12-29T10:18:46;10.10;99.90
2190;DHT22;1101;51.056;7.262;2022-12-29T10:21:24;10.10;99.90
2190;DHT22;1101;51.056;7.262;2022-12-29T10:23:54;10.10;99.90
2190;DHT22;1101;51.056;7.262;2022-12-29T10:26:27;10.10;99.90
2190;DHT22;1101;51.056;7.262;2022-12-29T10:28:59;10.10;99.90
2190;DHT22;1101;51.056;7.262;2022-12-29T10:31:35;10.10;99.90
2190;DHT22;1101;51.056;7.262;2022-12-29T10:34:15;10.20;99.90
2190;DHT22;1101;51.056;7.262;2022-12-29T10:36:48;10.20;99.90
2190;DHT22;1101;51.056;7.262;2022-12-29T10:39:21;10.20;99.90
2190;DHT22;1101;51.056;7.262;2022-12-29T10:41:54;10.20;99.90
2190;DHT22;1101;51.056;7.262;2022-12-29T10:44:26;10.20;99.90
2190;DHT22;1101;51.056;7.262;2022-12-29T10:46:59;10.30;99.90
2190;DHT22;1101;51.056;7.262;2022-12-29T10:49:31;10.30;99.90
2190;DHT22;1101;51.056;7.262;2022-12-29T10:52:02;10.30;99.90
2190;DHT22;1101;51.056;7.262;2022-12-29T10:54:36;10.30;99.90
2190;DHT22;1101;51.056;7.262;2022-12-29T10:57:09;10.40;99.90
2190;DHT22;1101;51.056;7.262;2022-12-29T10:59:39;10.40;99.90
2190;DHT22;1101;51.056;7.262;2022-12-29T11:02:23;10.40;99.90
2190;DHT22;1101;51.056;7.262;2022-12-29T11:05:01;10.30;99.90
2190;DHT22;1101;51.056;7.262;2022-12-29T11:07:31;10.30;99.90
2190;DHT22;1101;51.056;7.262;2022-12-29T11:10:18;10.30;99.90
2190;DHT22;1101;51.056;7.262;2022-12-29T11:12:57;10.20;99.90
2190;DHT22;1101;51.056;7.262;2022-12-29T11:15:25;10.20;99.90
2190;DHT22;1101;51.056;7.262;2022-12-29T11:17:56;10.20;99.90
2190;DHT22;1101;51.056;7.262;2022-12-29T11:20:34;10.20;99.90
2190;DHT22;1101;51.056;7.262;2022-12-29T11:23:04;10.20;99.90
2190;DHT22;1101;51.056;7.262;2022-12-29T11:25:32;10.20;99.90
2190;DHT22;1101;51.056;7.262;2022-12-29T11:28:01;10.20;99.90
2190;DHT22;1101;51.056;7.262;2022-12-29T11:30:31;10.20;99.90
2190;DHT22;1101;51.056;7.262;2022-12-29T11:33:02;10.30;99.90
2190;DHT22;1101;51.056;7.262;2022-12-29T11:35:34;10.30;99.90
2190;DHT22;1101;51.056;7.262;2022-12-29T11:38:03;10.40;99.90
2190;DHT22;1101;51.056;7.262;2022-12-29T11:40:32;10.40;99.90
2190;DHT22;1101;51.056;7.262;2022-12-29T11:43:05;10.40;99.90
2190;DHT22;1101;51.056;7.262;2022-12-29T11:45:35;10.30;99.90
2190;DHT22;1101;51.056;7.262;2022-12-29T11:48:08;10.30;99.90
2190;DHT22;1101;51.056;7.262;2022-12-29T11:50:40;10.30;99.90
2190;DHT22;1101;51.056;7.262;2022-12-29T11:53:15;10.30;99.90
2190;DHT22;1101;51.056;7.262;2022-12-29T11:55:51;10.20;99.90
2190;DHT22;1101;51.056;7.262;2022-12-29T11:58:20;10.20;99.90
2190;DHT22;1101;51.056;7.262;2022-12-29T12:00:49;10.20;99.90
2190;DHT22;1101;51.056;7.262;2022-12-29T12:03:19;10.20;99.90
2190;DHT22;1101;51.056;7.262;2022-12-29T12:05:52;10.20;99.90
2190;DHT22;1101;51.056;7.262;2022-12-29T12:08:31;10.20;99.90
2190;DHT22;1101;51.056;7.262;2022-12-29T12:11:08;10.20;99.90
2190;DHT22;1101;51.056;7.262;2022-12-29T12:13:41;10.20;99.90
2190;DHT22;1101;51.056;7.262;2022-12-29T12:16:15;10.20;99.90
2190;DHT22;1101;51.056;7.262;2022-12-29T12:18:47;10.20;99.90
2190;DHT22;1101;51.056;7.262;2022-12-29T12:21:23;10.10;99.90
2190;DHT22;1101;51.056;7.262;2022-12-29T12:26:58;10.10;99.90
2190;DHT22;1101;51.056;7.262;2022-12-29T12:29:35;10.10;99.90
2190;DHT22;1101;51.056;7.262;2022-12-29T12:32:12;10.10;99.90
2190;DHT22;1101;51.056;7.262;2022-12-29T12:34:43;10.10;99.90
2190;DHT22;1101;51.056;7.262;2022-12-29T12:37:33;10.10;99.90
2190;DHT22;1101;51.056;7.262;2022-12-29T12:40:23;10.10;99.90
2190;DHT22;1101;51.056;7.262;2022-12-29T12:43:08;10.10;99.90
2190;DHT22;1101;51.056;7.262;2022-12-29T12:45:47;10.10;99.90
2190;DHT22;1101;51.056;7.262;2022-12-29T12:48:30;10.10;99.90
2190;DHT22;1101;51.056;7.262;2022-12-29T12:51:10;10.10;99.90
2190;DHT22;1101;51.056;7.262;2022-12-29T12:53:56;10.20;99.90
2190;DHT22;1101;51.056;7.262;2022-12-29T12:56:43;10.10;99.90
2190;DHT22;1101;51.056;7.262;2022-12-29T12:59:25;10.10;99.90
2190;DHT22;1101;51.056;7.262;2022-12-29T13:02:01;10.10;99.90
2190;DHT22;1101;51.056;7.262;2022-12-29T13:04:41;10.10;99.90
2190;DHT22;1101;51.056;7.262;2022-12-29T13:07:18;10.10;99.90
2190;DHT22;1101;51.056;7.262;2022-12-29T13:10:00;10.10;99.90
2190;DHT22;1101;51.056;7.262;2022-12-29T13:12:36;10.10;99.90
2190;DHT22;1101;51.056;7.262;2022-12-29T13:15:17;10.00;99.90
2190;DHT22;1101;51.056;7.262;2022-12-29T13:17:54;10.10;99.90
2190;DHT22;1101;51.056;7.262;2022-12-29T13:20:30;10.10;99.90
2190;DHT22;1101;51.056;7.262;2022-12-29T13:23:06;10.00;99.90
2190;DHT22;1101;51.056;7.262;2022-12-29T13:25:41;10.10;99.90
2190;DHT22;1101;51.056;7.262;2022-12-29T13:28:16;10.00;99.90
2190;DHT22;1101;51.056;7.262;2022-12-29T13:30:53;10.00;99.90
2190;DHT22;1101;51.056;7.262;2022-12-29T13:33:33;10.00;99.90
2190;DHT22;1101;51.056;7.262;2022-12-29T13:36:06;10.00;99.90
2190;DHT22;1101;51.056;7.262;2022-12-29T13:38:39;10.00;99.90
2190;DHT22;1101;51.056;7.262;2022-12-29T13:41:18;10.00;99.90
2190;DHT22;1101;51.056;7.262;2022-12-29T13:43:48;10.00;99.90
2190;DHT22;1101;51.056;7.262;2022-12-29T13:46:21;10.00;99.90
2190;DHT22;1101;51.056;7.262;2022-12-29T13:48:51;10.00;99.90
2190;DHT22;1101;51.056;7.262;2022-12-29T13:51:21;10.00;99.90
2190;DHT22;1101;51.056;7.262;2022-12-29T13:54:12;10.00;99.90
2190;DHT22;1101;51.056;7.262;2022-12-29T13:56:50;9.90;99.90
2190;DHT22;1101;51.056;7.262;2022-12-29T13:59:26;9.90;99.90
2190;DHT22;1101;51.056;7.262;2022-12-29T14:02:03;10.00;99.90
2190;DHT22;1101;51.056;7.262;2022-12-29T14:04:36;9.90;99.90
2190;DHT22;1101;51.056;7.262;2022-12-29T14:07:22;9.90;99.90
2190;DHT22;1101;51.056;7.262;2022-12-29T14:09:51;9.90;99.90
2190;DHT22;1101;51.056;7.262;2022-12-29T14:12:31;9.90;99.90
2190;DHT22;1101;51.056;7.262;2022-12-29T14:15:22;9.90;99.90
2190;DHT22;1101;51.056;7.262;2022-12-29T14:18:13;9.90;99.90
2190;DHT22;1101;51.056;7.262;2022-12-29T14:21:01;9.80;99.90
2190;DHT22;1101;51.056;7.262;2022-12-29T14:23:37;9.90;99.90
2190;DHT22;1101;51.056;7.262;2022-12-29T14:26:14;9.80;99.90
2190;DHT22;1101;51.056;7.262;2022-12-29T14:28:45;9.80;99.90
2190;DHT22;1101;51.056;7.262;2022-12-29T14:31:34;9.80;99.90
2190;DHT22;1101;51.056;7.262;2022-12-29T14:34:37;9.80;99.90
2190;DHT22;1101;51.056;7.262;2022-12-29T14:37:23;9.80;99.90
2190;DHT22;1101;51.056;7.262;2022-12-29T14:40:04;9.70;99.90
2190;DHT22;1101;51.056;7.262;2022-12-29T14:42:33;9.70;99.90
2190;DHT22;1101;51.056;7.262;2022-12-29T14:45:06;9.70;99.90
2190;DHT22;1101;51.056;7.262;2022-12-29T14:47:37;9.70;99.90
2190;DHT22;1101;51.056;7.262;2022-12-29T14:50:10;9.70;99.90
2190;DHT22;1101;51.056;7.262;2022-12-29T14:52:46;9.70;99.90
2190;DHT22;1101;51.056;7.262;2022-12-29T14:55:36;9.70;99.90
2190;DHT22;1101;51.056;7.262;2022-12-29T14:58:06;9.70;99.90
2190;DHT22;1101;51.056;7.262;2022-12-29T15:00:41;9.60;99.90
2190;DHT22;1101;51.056;7.262;2022-12-29T15:03:14;9.60;99.90
2190;DHT22;1101;51.056;7.262;2022-12-29T15:05:45;9.60;99.90
2190;DHT22;1101;51.056;7.262;2022-12-29T15:08:17;9.60;99.90
2190;DHT22;1101;51.056;7.262;2022-12-29T15:10:51;9.50;99.90
2190;DHT22;1101;51.056;7.262;2022-12-29T15:13:22;9.60;99.90
2190;DHT22;1101;51.056;7.262;2022-12-29T15:15:52;9.50;99.90
2190;DHT22;1101;51.056;7.262;2022-12-29T15:18:25;9.50;99.90
2190;DHT22;1101;51.056;7.262;2022-12-29T15:20:56;9.50;99.90
2190;DHT22;1101;51.056;7.262;2022-12-29T15:23:25;9.50;99.90
2190;DHT22;1101;51.056;7.262;2022-12-29T15:25:55;9.40;99.90
2190;DHT22;1101;51.056;7.262;2022-12-29T15:28:24;9.50;99.90
2190;DHT22;1101;51.056;7.262;2022-12-29T15:30:56;9.40;99.90
2190;DHT22;1101;51.056;7.262;2022-12-29T15:33:29;9.40;99.90
2190;DHT22;1101;51.056;7.262;2022-12-29T15:36:03;9.40;99.90
2190;DHT22;1101;51.056;7.262;2022-12-29T15:38:30;9.30;99.90
2190;DHT22;1101;51.056;7.262;2022-12-29T15:41:08;9.30;99.90
2190;DHT22;1101;51.056;7.262;2022-12-29T15:43:52;9.30;99.90
2190;DHT22;1101;51.056;7.262;2022-12-29T15:46:22;9.30;99.90
2190;DHT22;1101;51.056;7.262;2022-12-29T15:48:50;9.20;99.90
2190;DHT22;1101;51.056;7.262;2022-12-29T15:51:20;9.20;99.90
2190;DHT22;1101;51.056;7.262;2022-12-29T15:53:50;9.20;99.90
2190;DHT22;1101;51.056;7.262;2022-12-29T15:56:19;9.20;99.90
2190;DHT22;1101;51.056;7.262;2022-12-29T15:58:48;9.20;99.90
2190;DHT22;1101;51.056;7.262;2022-12-29T16:01:18;9.20;99.90
2190;DHT22;1101;51.056;7.262;2022-12-29T16:03:49;9.20;99.90
2190;DHT22;1101;51.056;7.262;2022-12-29T16:06:30;9.10;99.90
2190;DHT22;1101;51.056;7.262;2022-12-29T16:09:03;9.10;99.90
2190;DHT22;1101;51.056;7.262;2022-12-29T16:11:33;9.00;99.90
2190;DHT22;1101;51.056;7.262;2022-12-29T16:14:06;9.10;99.90
2190;DHT22;1101;51.056;7.262;2022-12-29T16:16:37;9.00;99.90
2190;DHT22;1101;51.056;7.262;2022-12-29T16:19:12;9.00;99.90
2190;DHT22;1101;51.056;7.262;2022-12-29T16:21:41;8.90;99.90
2190;DHT22;1101;51.056;7.262;2022-12-29T16:24:13;8.90;99.90
2190;DHT22;1101;51.056;7.262;2022-12-29T16:26:47;8.90;99.90
2190;DHT22;1101;51.056;7.262;2022-12-29T16:29:16;8.80;99.90
2190;DHT22;1101;51.056;7.262;2022-12-29T16:31:55;8.80;99.90
2190;DHT22;1101;51.056;7.262;2022-12-29T16:34:31;8.80;99.90
2190;DHT22;1101;51.056;7.262;2022-12-29T16:37:00;8.70;99.90
2190;DHT22;1101;51.056;7.262;2022-12-29T16:39:34;8.70;99.90
2190;DHT22;1101;51.056;7.262;2022-12-29T16:42:33;8.70;99.90
2190;DHT22;1101;51.056;7.262;2022-12-29T16:45:28;8.60;99.90
2190;DHT22;1101;51.056;7.262;2022-12-29T16:48:17;8.60;99.90
2190;DHT22;1101;51.056;7.262;2022-12-29T16:50:47;8.60;99.90
2190;DHT22;1101;51.056;7.262;2022-12-29T16:53:19;8.60;99.90
2190;DHT22;1101;51.056;7.262;2022-12-29T16:55:48;8.50;99.90
2190;DHT22;1101;51.056;7.262;2022-12-29T16:58:19;8.50;99.90
2190;DHT22;1101;51.056;7.262;2022-12-29T17:00:48;8.50;99.90